Time;durP1;ratioP1;P1;durP2;ratioP2;P2;SDS_P1;SDS_P2;PMS_P1;PMS_P2;Temp;Humidity;BMP_temperature;BMP_pressure;BME280_temperature;BME280_humidity;BME280_pressure;Samples;Min_cycle;Max_cycle;Signal;HPM_P1;HPM_P2
2021/08/08 00:01:43;;;;;;;;;;;14.30;99.90;;;;;;5079262;28;19931;-73
2021/08/08 00:04:15;;;;;;;;;;;14.30;99.90;;;;;;5077768;28;19925;-72
2021/08/08 00:06:46;;;;;;;;;;;14.30;99.90;;;;;;5061288;28;19930;-73
2021/08/08 00:09:18;;;;;;;;;;;14.40;99.90;;;;;;5077082;28;20345;-73
2021/08/08 00:11:50;;;;;;;;;;;14.30;99.90;;;;;;5076882;28;19924;-73
2021/08/08 00:14:23;;;;;;;;;;;14.40;99.90;;;;;;5077232;28;19924;-73
2021/08/08 00:16:54;;;;;;;;;;;14.40;99.90;;;;;;5078276;28;19930;-73
2021/08/08 00:19:21;;;;;;;;;;;14.40;99.90;;;;;;5077041;28;20348;-72
2021/08/08 00:21:53;;;;;;;;;;;14.40;99.90;;;;;;5077918;28;20036;-73
2021/08/08 00:24:26;;;;;;;;;;;14.40;99.90;;;;;;5060960;28;20294;-72
2021/08/08 00:26:58;;;;;;;;;;;14.40;99.90;;;;;;5078556;28;20016;-72
2021/08/08 00:29:29;;;;;;;;;;;14.40;99.90;;;;;;5060933;28;19931;-73
2021/08/08 00:31:56;;;;;;;;;;;14.50;99.90;;;;;;5060048;28;20001;-73
2021/08/08 00:34:29;;;;;;;;;;;14.40;99.90;;;;;;5060913;28;19924;-73
2021/08/08 00:37:03;;;;;;;;;;;14.40;99.90;;;;;;5061273;28;20125;-73
2021/08/08 00:39:31;;;;;;;;;;;14.40;99.90;;;;;;5077075;28;19924;-72
2021/08/08 00:42:03;;;;;;;;;;;14.40;99.90;;;;;;5076539;28;20030;-72
2021/08/08 00:44:35;;;;;;;;;;;14.40;99.90;;;;;;5060907;28;20398;-72
2021/08/08 00:47:07;;;;;;;;;;;14.40;99.90;;;;;;5076737;28;19924;-72
2021/08/08 00:49:43;;;;;;;;;;;14.40;99.90;;;;;;5076809;28;19924;-72
2021/08/08 00:52:14;;;;;;;;;;;14.40;99.90;;;;;;5074472;28;19924;-72
2021/08/08 00:54:43;;;;;;;;;;;14.50;99.90;;;;;;5073324;28;19964;-72
2021/08/08 00:57:16;;;;;;;;;;;14.50;99.90;;;;;;5057658;28;20369;-72
2021/08/08 00:59:50;;;;;;;;;;;14.50;99.90;;;;;;5073258;28;20294;-73
2021/08/08 01:02:23;;;;;;;;;;;14.50;99.90;;;;;;5072601;28;19983;-73
2021/08/08 01:04:58;;;;;;;;;;;14.50;99.90;;;;;;5056425;28;19928;-73
2021/08/08 01:07:31;;;;;;;;;;;14.40;99.90;;;;;;5056084;28;20410;-73
2021/08/08 01:10:03;;;;;;;;;;;14.40;99.90;;;;;;5072210;28;19954;-72
2021/08/08 01:12:38;;;;;;;;;;;14.50;99.90;;;;;;5056936;28;19928;-73
2021/08/08 01:15:10;;;;;;;;;;;14.40;99.90;;;;;;5057110;28;19925;-72
2021/08/08 01:17:39;;;;;;;;;;;14.40;99.90;;;;;;5074395;28;19956;-73
2021/08/08 01:20:12;;;;;;;;;;;14.50;99.90;;;;;;5057451;28;19947;-73
2021/08/08 01:22:53;;;;;;;;;;;14.40;99.90;;;;;;5072310;28;20027;-73
2021/08/08 01:25:26;;;;;;;;;;;14.40;99.90;;;;;;5072664;28;20004;-73
2021/08/08 01:27:54;;;;;;;;;;;14.40;99.90;;;;;;5055725;28;19963;-73
2021/08/08 01:30:29;;;;;;;;;;;14.40;99.90;;;;;;5072342;28;19931;-72
2021/08/08 01:33:02;;;;;;;;;;;14.40;99.90;;;;;;5071889;28;20395;-73
2021/08/08 01:35:30;;;;;;;;;;;14.40;99.90;;;;;;5055970;28;20007;-73
2021/08/08 01:37:58;;;;;;;;;;;14.40;99.90;;;;;;5072783;28;19994;-72
2021/08/08 01:40:34;;;;;;;;;;;14.40;99.90;;;;;;5056190;28;19951;-72
2021/08/08 01:43:03;;;;;;;;;;;14.40;99.90;;;;;;5072304;28;20019;-72
2021/08/08 01:45:30;;;;;;;;;;;14.40;99.90;;;;;;5072573;28;19929;-72
2021/08/08 01:48:03;;;;;;;;;;;14.50;99.90;;;;;;5056862;28;19955;-72
2021/08/08 01:50:35;;;;;;;;;;;14.40;99.90;;;;;;5072525;28;20021;-72
2021/08/08 01:53:10;;;;;;;;;;;14.40;99.90;;;;;;5056956;28;19924;-72
2021/08/08 01:55:37;;;;;;;;;;;14.40;99.90;;;;;;5055830;28;19970;-73
2021/08/08 01:58:09;;;;;;;;;;;14.40;99.90;;;;;;5056520;28;19924;-72
2021/08/08 02:00:39;;;;;;;;;;;14.40;99.90;;;;;;5055934;28;19967;-72
2021/08/08 02:03:19;;;;;;;;;;;14.50;99.90;;;;;;5057145;28;20414;-72
2021/08/08 02:05:51;;;;;;;;;;;14.40;99.90;;;;;;5072033;28;19931;-72
2021/08/08 02:08:23;;;;;;;;;;;14.50;99.90;;;;;;5073387;28;20298;-73
2021/08/08 02:11:02;;;;;;;;;;;14.50;99.90;;;;;;5071900;28;19990;-72
2021/08/08 02:13:37;;;;;;;;;;;14.50;99.90;;;;;;5072120;28;19924;-73
2021/08/08 02:16:05;;;;;;;;;;;14.50;99.90;;;;;;5071740;28;20441;-72
2021/08/08 02:18:32;;;;;;;;;;;14.60;99.90;;;;;;5071902;28;19956;-72
2021/08/08 02:21:05;;;;;;;;;;;14.60;99.90;;;;;;5056171;28;19960;-72
2021/08/08 02:23:33;;;;;;;;;;;14.60;99.90;;;;;;5055357;28;19925;-73
2021/08/08 02:26:06;;;;;;;;;;;14.60;99.90;;;;;;5071565;28;20021;-72
2021/08/08 02:28:43;;;;;;;;;;;14.60;99.90;;;;;;5071827;28;20271;-72
2021/08/08 02:31:13;;;;;;;;;;;14.50;99.90;;;;;;5071598;28;20040;-72
2021/08/08 02:33:40;;;;;;;;;;;14.50;99.90;;;;;;5071496;28;20345;-72
2021/08/08 02:36:07;;;;;;;;;;;14.50;99.90;;;;;;5054818;28;19967;-73
2021/08/08 02:38:38;;;;;;;;;;;14.50;99.90;;;;;;5055548;28;20409;-72
2021/08/08 02:41:10;;;;;;;;;;;14.50;99.90;;;;;;5055210;28;19931;-72
2021/08/08 02:43:39;;;;;;;;;;;14.50;99.90;;;;;;5055243;28;20007;-73
2021/08/08 02:46:06;;;;;;;;;;;14.50;99.90;;;;;;5054779;28;19924;-72
2021/08/08 02:48:38;;;;;;;;;;;14.50;99.90;;;;;;5071445;28;20390;-72
2021/08/08 02:51:07;;;;;;;;;;;14.50;99.90;;;;;;5054526;28;19931;-72
2021/08/08 02:53:33;;;;;;;;;;;14.40;99.90;;;;;;5054929;28;19970;-73
2021/08/08 02:56:05;;;;;;;;;;;14.40;99.90;;;;;;5071146;28;19940;-72
2021/08/08 02:58:34;;;;;;;;;;;14.40;99.90;;;;;;5054715;28;19925;-73
2021/08/08 03:01:07;;;;;;;;;;;14.40;99.90;;;;;;5070904;28;19924;-73
2021/08/08 03:03:39;;;;;;;;;;;14.40;99.90;;;;;;5071119;28;20045;-73
2021/08/08 03:06:13;;;;;;;;;;;14.30;99.90;;;;;;5071129;28;20378;-72
2021/08/08 03:08:45;;;;;;;;;;;14.30;99.90;;;;;;5055182;28;19983;-72
2021/08/08 03:11:12;;;;;;;;;;;14.30;99.90;;;;;;5072135;28;19925;-72
2021/08/08 03:13:43;;;;;;;;;;;14.20;99.90;;;;;;5055457;28;20462;-73
2021/08/08 03:16:18;;;;;;;;;;;14.20;99.90;;;;;;5070309;28;20017;-73
2021/08/08 03:18:49;;;;;;;;;;;14.10;99.90;;;;;;5071151;28;19928;-73
2021/08/08 03:21:23;;;;;;;;;;;14.10;99.90;;;;;;5054879;28;19925;-73
2021/08/08 03:23:54;;;;;;;;;;;14.00;99.90;;;;;;5054870;28;19924;-72
2021/08/08 03:26:22;;;;;;;;;;;14.00;99.90;;;;;;5070677;28;19963;-73
2021/08/08 03:28:53;;;;;;;;;;;14.00;99.90;;;;;;5070562;28;19925;-73
2021/08/08 03:31:20;;;;;;;;;;;14.10;99.90;;;;;;5070396;28;19932;-73
2021/08/08 03:33:48;;;;;;;;;;;14.00;99.90;;;;;;5054190;28;20023;-73
2021/08/08 03:36:15;;;;;;;;;;;14.00;99.90;;;;;;5070371;28;19928;-73
2021/08/08 03:38:48;;;;;;;;;;;14.00;99.90;;;;;;5054663;28;19970;-72
2021/08/08 03:41:20;;;;;;;;;;;14.00;99.90;;;;;;5070221;28;19924;-72
2021/08/08 03:43:52;;;;;;;;;;;14.00;99.90;;;;;;5054544;28;19948;-73
2021/08/08 03:46:23;;;;;;;;;;;14.00;99.90;;;;;;5070454;28;20027;-73
2021/08/08 03:48:56;;;;;;;;;;;13.90;99.90;;;;;;5054689;28;19935;-72
2021/08/08 03:51:28;;;;;;;;;;;14.00;99.90;;;;;;5070057;28;20314;-72
2021/08/08 03:54:00;;;;;;;;;;;13.90;99.90;;;;;;5070487;28;19950;-72
2021/08/08 03:56:34;;;;;;;;;;;13.90;99.90;;;;;;5054711;28;19932;-72
2021/08/08 03:59:06;;;;;;;;;;;13.90;99.90;;;;;;5070590;28;20454;-72
2021/08/08 04:01:39;;;;;;;;;;;13.90;99.90;;;;;;5054419;28;20345;-72
2021/08/08 04:04:12;;;;;;;;;;;13.90;99.90;;;;;;5070569;28;20337;-72
2021/08/08 04:06:44;;;;;;;;;;;13.90;99.90;;;;;;5054318;28;19924;-72
2021/08/08 04:09:16;;;;;;;;;;;13.80;99.90;;;;;;5054377;28;19925;-72
2021/08/08 04:11:42;;;;;;;;;;;13.90;99.90;;;;;;5053393;28;20015;-72
2021/08/08 04:14:10;;;;;;;;;;;13.80;99.90;;;;;;5070355;28;19924;-72
2021/08/08 04:16:42;;;;;;;;;;;13.80;99.90;;;;;;5054232;28;19964;-72
2021/08/08 04:19:14;;;;;;;;;;;13.80;99.90;;;;;;5071668;28;20027;-72
2021/08/08 04:21:46;;;;;;;;;;;13.80;99.90;;;;;;5069978;28;19928;-72
2021/08/08 04:24:18;;;;;;;;;;;13.70;99.90;;;;;;5070593;28;19925;-72
2021/08/08 04:26:47;;;;;;;;;;;13.70;99.90;;;;;;5054082;28;20285;-72
2021/08/08 04:29:19;;;;;;;;;;;13.70;99.90;;;;;;5057949;28;19924;-72
2021/08/08 04:31:51;;;;;;;;;;;13.70;99.90;;;;;;5073596;28;19928;-72
2021/08/08 04:34:23;;;;;;;;;;;13.70;99.90;;;;;;5057976;28;20351;-72
2021/08/08 04:36:50;;;;;;;;;;;13.80;99.90;;;;;;5057499;28;20028;-72
2021/08/08 04:39:17;;;;;;;;;;;13.80;99.90;;;;;;5057131;28;20378;-72
2021/08/08 04:41:44;;;;;;;;;;;13.80;99.90;;;;;;5056918;28;19974;-72
2021/08/08 04:44:10;;;;;;;;;;;13.80;99.90;;;;;;5057058;28;20031;-72
2021/08/08 04:46:37;;;;;;;;;;;13.80;99.90;;;;;;5073575;28;19925;-72
2021/08/08 04:49:09;;;;;;;;;;;13.90;99.90;;;;;;5073589;28;19924;-72
2021/08/08 04:51:41;;;;;;;;;;;13.90;99.90;;;;;;5057405;28;19924;-72
2021/08/08 04:54:13;;;;;;;;;;;13.90;99.90;;;;;;5057497;28;20354;-72
2021/08/08 04:56:45;;;;;;;;;;;14.00;99.90;;;;;;5057417;28;19932;-72
2021/08/08 04:59:17;;;;;;;;;;;14.00;99.90;;;;;;5055696;28;20370;-72
2021/08/08 05:01:43;;;;;;;;;;;14.00;99.90;;;;;;5043997;28;20437;-72
2021/08/08 05:04:16;;;;;;;;;;;14.00;99.90;;;;;;5052415;28;19935;-72
2021/08/08 05:06:48;;;;;;;;;;;14.10;99.90;;;;;;5059477;28;20015;-72
2021/08/08 05:09:24;;;;;;;;;;;14.10;99.90;;;;;;5061705;28;19931;-72
2021/08/08 05:11:55;;;;;;;;;;;14.20;99.90;;;;;;5068160;28;19928;-73
2021/08/08 05:14:32;;;;;;;;;;;14.20;99.90;;;;;;5041360;28;20390;-73
2021/08/08 05:17:04;;;;;;;;;;;14.20;99.90;;;;;;5047748;28;19933;-73
2021/08/08 05:19:32;;;;;;;;;;;14.30;99.90;;;;;;5048524;28;19968;-72
2021/08/08 05:21:59;;;;;;;;;;;14.30;99.90;;;;;;5055806;28;20461;-72
2021/08/08 05:24:31;;;;;;;;;;;14.40;99.90;;;;;;5025096;28;19925;-73
2021/08/08 05:27:04;;;;;;;;;;;14.40;99.90;;;;;;5063691;28;19932;-72
2021/08/08 05:29:31;;;;;;;;;;;14.50;99.90;;;;;;5065834;28;19928;-73
2021/08/08 05:32:03;;;;;;;;;;;14.50;99.90;;;;;;5055493;28;19932;-73
2021/08/08 05:34:30;;;;;;;;;;;14.50;99.90;;;;;;5065568;28;20386;-73
2021/08/08 05:36:56;;;;;;;;;;;14.50;99.90;;;;;;5057483;28;20023;-73
2021/08/08 05:39:29;;;;;;;;;;;14.60;99.90;;;;;;5023557;28;20301;-73
2021/08/08 05:42:01;;;;;;;;;;;14.70;99.90;;;;;;5063346;28;19931;-73
2021/08/08 05:44:37;;;;;;;;;;;14.70;99.90;;;;;;5063907;28;20047;-73
2021/08/08 05:47:13;;;;;;;;;;;14.70;99.90;;;;;;5040061;28;19929;-72
2021/08/08 05:49:47;;;;;;;;;;;14.80;99.90;;;;;;5062420;28;20358;-72
2021/08/08 05:52:20;;;;;;;;;;;14.80;99.90;;;;;;5053074;28;19969;-73
2021/08/08 05:54:51;;;;;;;;;;;14.80;99.90;;;;;;5057938;28;20016;-72
2021/08/08 05:57:18;;;;;;;;;;;14.90;99.90;;;;;;5067658;28;19963;-72
2021/08/08 05:59:50;;;;;;;;;;;14.90;99.90;;;;;;5058202;28;19931;-72
2021/08/08 06:02:17;;;;;;;;;;;14.90;99.90;;;;;;5071299;28;20015;-73
2021/08/08 06:04:49;;;;;;;;;;;15.00;99.90;;;;;;5050333;28;20384;-72
2021/08/08 06:07:21;;;;;;;;;;;15.00;99.90;;;;;;5043801;28;19925;-73
2021/08/08 06:09:53;;;;;;;;;;;15.00;99.90;;;;;;5056484;28;19925;-72
2021/08/08 06:12:25;;;;;;;;;;;15.00;99.90;;;;;;5069957;28;19993;-73
2021/08/08 06:14:57;;;;;;;;;;;15.00;99.90;;;;;;5053254;28;19934;-73
2021/08/08 06:17:30;;;;;;;;;;;15.00;99.90;;;;;;5070699;28;20019;-73
2021/08/08 06:20:03;;;;;;;;;;;15.10;99.90;;;;;;5071604;28;19971;-73
2021/08/08 06:22:38;;;;;;;;;;;15.10;99.90;;;;;;5055334;28;19971;-73
2021/08/08 06:25:11;;;;;;;;;;;15.20;99.90;;;;;;5051717;28;19931;-74
2021/08/08 06:27:43;;;;;;;;;;;15.20;99.90;;;;;;5051528;28;20410;-73
2021/08/08 06:30:16;;;;;;;;;;;15.20;99.90;;;;;;5035754;28;19928;-73
2021/08/08 06:32:50;;;;;;;;;;;15.30;99.90;;;;;;5051354;28;20303;-73
2021/08/08 06:35:18;;;;;;;;;;;15.30;99.90;;;;;;5034812;28;20275;-73
2021/08/08 06:37:50;;;;;;;;;;;15.30;99.90;;;;;;5051360;28;20440;-73
2021/08/08 06:40:17;;;;;;;;;;;15.30;99.90;;;;;;5034865;28;20409;-73
2021/08/08 06:42:49;;;;;;;;;;;15.40;99.90;;;;;;5050481;28;19936;-73
2021/08/08 06:45:25;;;;;;;;;;;15.40;99.90;;;;;;5035422;28;20347;-73
2021/08/08 06:47:52;;;;;;;;;;;15.50;99.90;;;;;;5034722;28;19925;-73
2021/08/08 06:50:21;;;;;;;;;;;15.50;99.90;;;;;;5034098;28;19932;-73
2021/08/08 06:52:53;;;;;;;;;;;15.50;99.90;;;;;;5054712;28;19935;-73
2021/08/08 06:55:27;;;;;;;;;;;15.60;99.90;;;;;;5055141;28;19924;-73
2021/08/08 06:57:59;;;;;;;;;;;15.60;99.90;;;;;;5054881;28;19924;-73
2021/08/08 07:00:28;;;;;;;;;;;15.70;99.90;;;;;;5070581;28;19925;-73
2021/08/08 07:02:55;;;;;;;;;;;15.70;99.90;;;;;;5053211;28;19929;-73
2021/08/08 07:05:26;;;;;;;;;;;15.70;99.90;;;;;;5054224;28;19925;-73
2021/08/08 07:07:59;;;;;;;;;;;15.70;99.90;;;;;;5070041;28;19924;-73
2021/08/08 07:10:26;;;;;;;;;;;15.80;99.90;;;;;;5053512;28;20503;-73
2021/08/08 07:12:59;;;;;;;;;;;15.80;99.90;;;;;;5054035;28;19925;-73
2021/08/08 07:15:31;;;;;;;;;;;15.80;99.90;;;;;;5071319;28;19928;-73
2021/08/08 07:18:00;;;;;;;;;;;15.90;99.90;;;;;;5053590;28;19952;-73
2021/08/08 07:20:34;;;;;;;;;;;16.00;99.90;;;;;;5070023;28;19954;-73
2021/08/08 07:23:02;;;;;;;;;;;16.10;99.90;;;;;;5052695;28;19925;-73
2021/08/08 07:25:34;;;;;;;;;;;16.20;99.90;;;;;;5051283;28;19929;-73
2021/08/08 07:28:08;;;;;;;;;;;16.30;99.90;;;;;;5049596;28;20043;-73
2021/08/08 07:30:40;;;;;;;;;;;16.40;99.90;;;;;;5049847;28;19925;-73
2021/08/08 07:33:13;;;;;;;;;;;16.40;99.90;;;;;;5049291;28;20402;-73
2021/08/08 07:35:46;;;;;;;;;;;16.50;99.90;;;;;;5049922;28;20031;-73
2021/08/08 07:38:17;;;;;;;;;;;16.70;99.90;;;;;;5033661;28;19925;-73
2021/08/08 07:40:45;;;;;;;;;;;16.80;99.90;;;;;;5055108;28;19982;-73
2021/08/08 07:43:16;;;;;;;;;;;16.70;99.90;;;;;;5073613;28;19935;-73
2021/08/08 07:45:48;;;;;;;;;;;16.80;99.90;;;;;;5071935;28;19924;-73
2021/08/08 07:48:20;;;;;;;;;;;16.90;99.90;;;;;;5069406;28;19929;-73
2021/08/08 07:50:53;;;;;;;;;;;17.00;99.90;;;;;;5068616;28;19932;-73
2021/08/08 07:53:25;;;;;;;;;;;17.00;99.90;;;;;;5054199;28;19928;-72
2021/08/08 07:55:57;;;;;;;;;;;17.00;99.90;;;;;;5053939;28;19928;-73
2021/08/08 07:58:23;;;;;;;;;;;17.00;99.90;;;;;;5052919;28;20368;-72
2021/08/08 08:00:55;;;;;;;;;;;16.90;99.90;;;;;;5053663;28;19974;-73
2021/08/08 08:03:28;;;;;;;;;;;17.00;99.90;;;;;;5073402;28;20031;-72
2021/08/08 08:05:55;;;;;;;;;;;17.00;99.90;;;;;;5074065;28;19931;-73
2021/08/08 08:08:27;;;;;;;;;;;17.00;99.90;;;;;;5057741;28;19928;-73
2021/08/08 08:11:00;;;;;;;;;;;17.00;99.90;;;;;;5057725;28;19931;-72
2021/08/08 08:13:32;;;;;;;;;;;17.00;99.90;;;;;;5075040;28;20338;-72
2021/08/08 08:16:04;;;;;;;;;;;17.00;99.90;;;;;;5073773;28;19931;-72
2021/08/08 08:18:30;;;;;;;;;;;17.10;99.90;;;;;;5057292;28;19979;-72
2021/08/08 08:21:02;;;;;;;;;;;17.10;99.90;;;;;;5073337;28;19974;-73
2021/08/08 08:23:29;;;;;;;;;;;17.10;99.90;;;;;;5074981;28;20368;-72
2021/08/08 08:26:00;;;;;;;;;;;17.10;99.90;;;;;;5058071;28;20361;-72
2021/08/08 08:28:29;;;;;;;;;;;17.20;99.90;;;;;;5073580;28;19932;-72
2021/08/08 08:30:58;;;;;;;;;;;17.20;99.90;;;;;;5057195;28;19928;-73
2021/08/08 08:33:26;;;;;;;;;;;17.30;99.90;;;;;;5057701;28;19947;-72
2021/08/08 08:35:54;;;;;;;;;;;17.30;99.90;;;;;;5073380;28;20444;-73
2021/08/08 08:38:27;;;;;;;;;;;17.40;99.90;;;;;;5073360;28;19924;-71
2021/08/08 08:41:03;;;;;;;;;;;17.50;99.90;;;;;;5073888;28;19928;-72
2021/08/08 08:43:30;;;;;;;;;;;17.60;99.90;;;;;;5073294;28;19930;-73
2021/08/08 08:46:02;;;;;;;;;;;17.60;99.90;;;;;;5057164;28;19931;-72
2021/08/08 08:48:36;;;;;;;;;;;17.70;99.90;;;;;;5072952;28;19928;-73
2021/08/08 08:51:08;;;;;;;;;;;17.80;99.90;;;;;;5072265;28;20019;-73
2021/08/08 08:53:45;;;;;;;;;;;17.80;99.90;;;;;;5057028;28;19964;-72
2021/08/08 08:56:16;;;;;;;;;;;17.80;99.90;;;;;;5072653;28;20026;-73
2021/08/08 08:58:43;;;;;;;;;;;17.80;99.90;;;;;;5072824;28;20375;-72
2021/08/08 09:01:11;;;;;;;;;;;17.80;99.90;;;;;;5055801;28;20009;-72
2021/08/08 09:03:38;;;;;;;;;;;17.80;99.90;;;;;;5056325;28;19968;-73
2021/08/08 09:06:05;;;;;;;;;;;17.90;99.90;;;;;;5072611;28;19954;-73
2021/08/08 09:08:38;;;;;;;;;;;17.90;99.90;;;;;;5056844;28;19935;-72
2021/08/08 09:11:11;;;;;;;;;;;17.90;99.90;;;;;;5056069;28;19945;-73
2021/08/08 09:13:51;;;;;;;;;;;18.00;99.90;;;;;;5071549;28;19971;-72
2021/08/08 09:16:36;;;;;;;;;;;18.00;99.90;;;;;;5057382;28;20022;-72
2021/08/08 09:19:20;;;;;;;;;;;18.20;99.90;;;;;;5056569;28;20378;-74
2021/08/08 09:21:48;;;;;;;;;;;18.30;99.90;;;;;;5072109;28;20027;-73
2021/08/08 09:24:29;;;;;;;;;;;18.30;99.90;;;;;;5072264;28;20020;-73
2021/08/08 09:27:06;;;;;;;;;;;18.30;99.90;;;;;;5072302;28;19929;-73
2021/08/08 09:29:34;;;;;;;;;;;18.10;99.90;;;;;;5067534;28;20002;-73
2021/08/08 09:32:06;;;;;;;;;;;18.20;99.90;;;;;;5068953;28;19924;-73
2021/08/08 09:34:40;;;;;;;;;;;18.30;99.90;;;;;;5056403;28;19935;-73
2021/08/08 09:37:14;;;;;;;;;;;18.30;99.90;;;;;;5072534;28;19924;-73
2021/08/08 09:39:51;;;;;;;;;;;18.30;99.90;;;;;;5070195;28;20547;-73
2021/08/08 09:42:24;;;;;;;;;;;18.30;99.90;;;;;;5040702;28;19928;-73
2021/08/08 09:44:58;;;;;;;;;;;18.40;99.90;;;;;;5054094;28;20023;-72
2021/08/08 09:47:42;;;;;;;;;;;18.40;99.90;;;;;;5033477;28;20039;-74
2021/08/08 09:50:23;;;;;;;;;;;18.40;99.90;;;;;;5056657;28;19928;-73
2021/08/08 09:52:56;;;;;;;;;;;18.40;99.90;;;;;;5050961;28;20383;-73
2021/08/08 09:55:27;;;;;;;;;;;18.40;99.90;;;;;;5047011;28;20041;-73
2021/08/08 09:57:59;;;;;;;;;;;18.50;99.90;;;;;;5036583;28;19963;-73
2021/08/08 10:00:36;;;;;;;;;;;18.60;99.90;;;;;;5052483;28;19952;-73
2021/08/08 10:03:03;;;;;;;;;;;18.70;99.90;;;;;;5035244;28;19924;-72
2021/08/08 10:05:34;;;;;;;;;;;18.80;99.90;;;;;;5052011;28;19975;-73
2021/08/08 10:08:21;;;;;;;;;;;19.00;99.90;;;;;;5053150;28;19988;-72
2021/08/08 10:10:53;;;;;;;;;;;19.00;99.90;;;;;;5036251;28;20465;-73
2021/08/08 10:13:45;;;;;;;;;;;19.20;99.90;;;;;;5043906;28;20014;-73
2021/08/08 10:16:19;;;;;;;;;;;19.40;99.90;;;;;;5031525;28;19993;-73
2021/08/08 10:18:56;;;;;;;;;;;19.50;99.90;;;;;;5030586;28;20391;-73
2021/08/08 10:21:33;;;;;;;;;;;19.50;99.90;;;;;;5017979;28;19932;-73
2021/08/08 10:24:09;;;;;;;;;;;19.60;99.90;;;;;;5035848;28;20015;-72
2021/08/08 10:26:36;;;;;;;;;;;19.50;99.90;;;;;;5034509;28;19924;-73
2021/08/08 10:29:07;;;;;;;;;;;19.60;99.90;;;;;;5051546;28;19924;-72
2021/08/08 10:31:34;;;;;;;;;;;19.60;99.90;;;;;;5034007;28;19931;-74
2021/08/08 10:34:08;;;;;;;;;;;19.60;99.90;;;;;;5052657;28;20015;-74
2021/08/08 10:36:35;;;;;;;;;;;19.60;99.90;;;;;;5034433;28;19924;-74
2021/08/08 10:39:07;;;;;;;;;;;19.60;99.90;;;;;;5034638;28;20393;-74
2021/08/08 10:41:35;;;;;;;;;;;19.70;99.90;;;;;;5050842;28;19924;-75
2021/08/08 10:44:07;;;;;;;;;;;19.70;99.90;;;;;;5035243;28;20071;-74
2021/08/08 10:46:44;;;;;;;;;;;19.60;99.90;;;;;;5051156;28;19994;-74
2021/08/08 10:49:11;;;;;;;;;;;19.50;99.90;;;;;;5051804;28;20298;-73
2021/08/08 10:51:42;;;;;;;;;;;19.50;99.90;;;;;;5034458;28;19936;-74
2021/08/08 10:54:09;;;;;;;;;;;19.50;99.90;;;;;;5044859;28;19932;-74
2021/08/08 10:56:42;;;;;;;;;;;19.40;99.90;;;;;;5034721;28;19929;-74
2021/08/08 10:59:17;;;;;;;;;;;19.30;99.90;;;;;;5031059;28;19929;-74
2021/08/08 11:01:46;;;;;;;;;;;19.30;99.90;;;;;;5013552;28;19925;-73
2021/08/08 11:04:29;;;;;;;;;;;19.30;99.90;;;;;;5031757;28;20016;-74
2021/08/08 11:07:03;;;;;;;;;;;19.30;99.90;;;;;;5030316;28;19925;-74
2021/08/08 11:09:35;;;;;;;;;;;19.30;99.90;;;;;;5030379;28;19925;-74
2021/08/08 11:12:03;;;;;;;;;;;19.30;99.90;;;;;;5030003;28;20392;-73
2021/08/08 11:14:30;;;;;;;;;;;19.30;99.90;;;;;;5014167;28;19932;-74
2021/08/08 11:17:03;;;;;;;;;;;19.30;99.90;;;;;;5031750;28;19925;-74
2021/08/08 11:19:41;;;;;;;;;;;19.50;99.90;;;;;;5030171;28;19943;-73
2021/08/08 11:22:10;;;;;;;;;;;19.40;99.90;;;;;;5029682;28;20008;-73
2021/08/08 11:24:38;;;;;;;;;;;19.50;99.90;;;;;;5013659;28;19975;-73
2021/08/08 11:27:10;;;;;;;;;;;19.70;99.90;;;;;;5030180;28;19935;-74
2021/08/08 11:29:37;;;;;;;;;;;19.70;99.90;;;;;;5013628;28;19929;-73
2021/08/08 11:32:09;;;;;;;;;;;19.80;99.90;;;;;;5029676;28;20581;-73
2021/08/08 11:34:40;;;;;;;;;;;19.70;99.90;;;;;;5030288;28;20379;-74
2021/08/08 11:37:07;;;;;;;;;;;19.60;99.90;;;;;;5029409;28;20427;-74
2021/08/08 11:39:35;;;;;;;;;;;19.60;99.90;;;;;;5013750;28;19960;-73
2021/08/08 11:42:07;;;;;;;;;;;19.50;99.90;;;;;;5035644;28;19925;-73
2021/08/08 11:44:35;;;;;;;;;;;19.50;99.90;;;;;;5045357;28;19929;-73
2021/08/08 11:47:02;;;;;;;;;;;19.50;99.90;;;;;;5047040;28;20471;-74
2021/08/08 11:49:44;;;;;;;;;;;19.50;99.90;;;;;;5029762;28;19963;-74
2021/08/08 11:52:17;;;;;;;;;;;19.50;99.90;;;;;;5047048;28;19925;-74
2021/08/08 11:55:00;;;;;;;;;;;19.40;99.90;;;;;;5031133;28;19961;-73
2021/08/08 11:57:28;;;;;;;;;;;19.40;99.90;;;;;;5052767;28;19924;-73
2021/08/08 12:00:00;;;;;;;;;;;19.40;99.90;;;;;;5063779;28;19929;-74
2021/08/08 12:02:33;;;;;;;;;;;19.40;99.90;;;;;;5044809;28;19925;-74
2021/08/08 12:05:01;;;;;;;;;;;19.40;99.90;;;;;;5031506;28;19937;-74
2021/08/08 12:07:28;;;;;;;;;;;19.40;99.90;;;;;;5031663;28;19925;-73
2021/08/08 12:09:55;;;;;;;;;;;19.30;99.90;;;;;;5048302;28;19925;-73
2021/08/08 12:12:45;;;;;;;;;;;19.30;99.90;;;;;;5044250;28;19929;-73
2021/08/08 12:15:12;;;;;;;;;;;19.30;99.90;;;;;;5042976;28;19929;-73
2021/08/08 12:17:44;;;;;;;;;;;19.20;99.90;;;;;;5043277;28;19932;-73
2021/08/08 12:20:16;;;;;;;;;;;19.10;99.90;;;;;;5037384;28;19971;-73
2021/08/08 12:22:48;;;;;;;;;;;19.10;99.90;;;;;;5048231;28;19925;-75
2021/08/08 12:25:20;;;;;;;;;;;19.10;99.90;;;;;;5032414;28;19937;-74
2021/08/08 12:27:53;;;;;;;;;;;19.20;99.90;;;;;;5047758;28;19931;-72
2021/08/08 12:30:19;;;;;;;;;;;19.20;99.90;;;;;;5048156;28;19929;-72
2021/08/08 12:32:47;;;;;;;;;;;19.20;99.90;;;;;;5046291;28;20020;-73
2021/08/08 12:35:15;;;;;;;;;;;19.30;99.90;;;;;;5028206;28;19925;-73
2021/08/08 12:37:47;;;;;;;;;;;19.30;99.90;;;;;;5045300;28;20318;-73
2021/08/08 12:40:14;;;;;;;;;;;19.20;99.90;;;;;;5045270;28;19932;-73
2021/08/08 12:42:46;;;;;;;;;;;19.20;99.90;;;;;;5030567;28;20393;-73
2021/08/08 12:45:14;;;;;;;;;;;19.20;99.90;;;;;;5046480;28;19932;-73
2021/08/08 12:47:41;;;;;;;;;;;19.10;99.90;;;;;;5031351;28;19931;-73
2021/08/08 12:50:13;;;;;;;;;;;19.20;99.90;;;;;;5049815;28;19933;-73
2021/08/08 12:52:45;;;;;;;;;;;19.20;99.90;;;;;;5033338;28;19932;-72
2021/08/08 12:55:17;;;;;;;;;;;19.10;99.90;;;;;;5049457;28;19931;-73
2021/08/08 12:57:49;;;;;;;;;;;19.00;99.90;;;;;;5050249;28;20288;-72
2021/08/08 13:00:22;;;;;;;;;;;19.00;99.90;;;;;;5033207;28;19925;-73
2021/08/08 13:02:52;;;;;;;;;;;19.10;99.90;;;;;;5049582;28;20032;-73
2021/08/08 13:05:19;;;;;;;;;;;19.00;99.90;;;;;;5050514;28;19925;-73
2021/08/08 13:07:46;;;;;;;;;;;19.00;99.90;;;;;;5033309;28;19925;-73
2021/08/08 13:10:17;;;;;;;;;;;19.00;99.90;;;;;;5034645;28;20239;-73
2021/08/08 13:12:45;;;;;;;;;;;19.00;99.90;;;;;;5049429;28;19963;-73
2021/08/08 13:15:12;;;;;;;;;;;18.90;99.90;;;;;;5033003;28;19932;-73
2021/08/08 13:17:45;;;;;;;;;;;18.90;99.90;;;;;;5033209;28;19979;-73
2021/08/08 13:20:26;;;;;;;;;;;18.80;99.90;;;;;;5033049;28;19925;-73
2021/08/08 13:22:57;;;;;;;;;;;18.80;99.90;;;;;;5032680;28;20298;-73
2021/08/08 13:25:30;;;;;;;;;;;18.70;99.90;;;;;;5032730;28;19929;-73
2021/08/08 13:27:56;;;;;;;;;;;18.60;99.90;;;;;;5032740;28;19925;-73
2021/08/08 13:30:28;;;;;;;;;;;18.60;99.90;;;;;;5048898;28;19932;-73
2021/08/08 13:33:00;;;;;;;;;;;18.60;99.90;;;;;;5032417;28;19929;-73
2021/08/08 13:35:31;;;;;;;;;;;18.50;99.90;;;;;;5032334;28;19925;-72
2021/08/08 13:37:58;;;;;;;;;;;18.40;99.90;;;;;;5049147;28;20473;-73
2021/08/08 13:40:30;;;;;;;;;;;18.40;99.90;;;;;;5033908;28;19929;-73
2021/08/08 13:42:57;;;;;;;;;;;18.50;99.90;;;;;;5032496;28;19925;-73
2021/08/08 13:45:28;;;;;;;;;;;18.50;99.90;;;;;;5033710;28;19936;-73
2021/08/08 13:47:55;;;;;;;;;;;18.60;99.90;;;;;;5032323;28;19939;-73
2021/08/08 13:50:21;;;;;;;;;;;18.50;99.90;;;;;;5032377;28;19925;-73
2021/08/08 13:52:48;;;;;;;;;;;18.50;99.90;;;;;;5048725;28;19931;-73
2021/08/08 13:55:17;;;;;;;;;;;18.50;99.90;;;;;;5049045;28;19925;-72
2021/08/08 13:57:43;;;;;;;;;;;18.40;99.90;;;;;;5032225;28;19925;-73
2021/08/08 14:00:15;;;;;;;;;;;18.40;99.90;;;;;;5048343;28;19925;-72
2021/08/08 14:02:43;;;;;;;;;;;18.50;99.90;;;;;;5031948;28;19925;-73
2021/08/08 14:05:11;;;;;;;;;;;18.50;99.90;;;;;;5032319;28;20384;-73
2021/08/08 14:07:37;;;;;;;;;;;18.50;99.90;;;;;;5032564;28;20397;-73
2021/08/08 14:10:04;;;;;;;;;;;18.40;99.90;;;;;;5048764;28;20346;-71
2021/08/08 14:12:31;;;;;;;;;;;18.30;99.90;;;;;;5031914;28;19925;-73
2021/08/08 14:14:58;;;;;;;;;;;18.20;99.90;;;;;;5048651;28;20478;-73
2021/08/08 14:17:29;;;;;;;;;;;18.20;99.90;;;;;;5031733;28;19929;-73
2021/08/08 14:19:56;;;;;;;;;;;18.20;99.90;;;;;;5033075;28;20370;-73
2021/08/08 14:22:27;;;;;;;;;;;18.20;99.90;;;;;;5031870;28;19925;-73
2021/08/08 14:24:54;;;;;;;;;;;18.10;99.90;;;;;;5031970;28;19932;-73
2021/08/08 14:27:21;;;;;;;;;;;18.10;99.90;;;;;;5031534;28;20259;-73
2021/08/08 14:29:53;;;;;;;;;;;18.10;99.90;;;;;;5044567;28;20180;-73
2021/08/08 14:32:19;;;;;;;;;;;18.10;99.90;;;;;;5051392;28;19925;-73
2021/08/08 14:34:51;;;;;;;;;;;18.10;99.90;;;;;;5051522;28;19925;-73
2021/08/08 14:37:23;;;;;;;;;;;18.20;99.90;;;;;;5051438;28;19924;-73
2021/08/08 14:39:54;;;;;;;;;;;18.10;99.90;;;;;;5051664;28;20418;-73